Data for 12/30/2010

Time Sea-Level Adjusted Pressure Absolute Pressure Temperature Relative Humidity Dew Point   
(mb) (inHg) (mb) (inHg) (C) (F) (%) (C) (F)
00:05 1001 29.56 830 24.51 -13 8.5 84 -15.2 4.6
00:10 1001 29.56 830 24.51 -13.4 8 84 -15.4 4.2
00:15 1001 29.56 831 24.54 -13.5 7.8 84 -15.6 3.9
00:20 1001 29.56 831 24.54 -13.5 7.8 84 -15.6 4
00:25 1001 29.56 831 24.54 -13.5 7.7 84 -15.7 3.7
00:30 1001 29.56 831 24.54 -13.4 7.8 84 -15.6 4
00:35 1002 29.59 831 24.54 -13.5 7.6 84 -15.6 3.9
00:40 1002 29.59 831 24.54 -13.7 7.4 86 -15.6 3.9
00:45 1002 29.59 831 24.54 -13.6 7.5 85 -15.7 3.8
00:50 1002 29.59 831 24.54 -13.7 7.4 84 -15.8 3.6
00:55 1002 29.59 831 24.54 -13.9 6.9 85 -15.9 3.4
01:00 1002 29.59 831 24.54 -14 6.9 85 -16 3.2
01:05 1002 29.59 831 24.54 -14.1 6.7 84 -16.1 3
01:10 1002 29.59 831 24.54 -14.1 6.6 84 -16.3 2.7
01:15 1002 29.59 831 24.54 -14.1 6.7 84 -16.2 2.8
01:20 1002 29.59 831 24.54 -14 6.7 85 -16 3.2
01:25 1002 29.59 831 24.54 -14.1 6.7 85 -16.1 2.9
01:30 1002 29.59 831 24.54 -14 6.7 84 -16.1 2.9
01:35 1002 29.59 831 24.54 -14.1 6.6 84 -16.2 2.8
01:40 1002 29.59 831 24.54 -14.1 6.7 84 -16.2 2.8
01:45 1002 29.59 831 24.54 -14.1 6.6 84 -16.2 2.8
01:50 1002 29.59 831 24.54 -14.1 6.5 84 -16.3 2.7
01:55 1002 29.59 832 24.57 -14.1 6.7 84 -16.3 2.7
02:00 1002 29.59 832 24.57 -14.2 6.5 85 -16.2 2.8
02:05 1002 29.59 832 24.57 -14.1 6.6 84 -16.2 2.8
02:10 1002 29.59 832 24.57 -14.3 6.3 85 -16.2 2.8
02:15 1003 29.62 832 24.57 -14.3 6.4 85 -16.3 2.7
02:20 1003 29.62 832 24.57 -14.3 6.3 85 -16.3 2.7
02:25 1003 29.62 832 24.57 -14.2 6.4 85 -16.2 2.8
02:30 1003 29.62 832 24.57 -14.3 6.2 84 -16.4 2.4
02:35 1003 29.62 832 24.57 -14.4 6.1 85 -16.4 2.4
02:40 1003 29.62 832 24.57 -14.3 6.3 84 -16.5 2.3
02:45 1003 29.62 832 24.57 -14.4 6.1 84 -16.6 2.2
02:50 1003 29.62 832 24.57 -14.5 5.8 84 -16.7 2
02:55 1003 29.62 832 24.57 -14.6 5.8 85 -16.6 2
03:00 1003 29.62 832 24.57 -14.5 5.9 84 -16.7 2
03:05 1003 29.62 832 24.57 -14.5 5.8 84 -16.7 2
03:10 1003 29.62 832 24.57 -14.5 5.9 84 -16.6 2
03:15 1003 29.62 832 24.57 -14.5 5.9 84 -16.7 2
03:20 1003 29.62 832 24.57 -14.5 5.9 84 -16.7 1.9
03:25 1003 29.62 832 24.57 -14.6 5.8 84 -16.7 1.9
03:30 1003 29.62 833 24.6 -14.5 5.9 84 -16.6 2.1
03:35 1003 29.62 833 24.6 -14.5 5.9 84 -16.6 2
03:40 1003 29.62 833 24.6 -14.6 5.8 85 -16.6 2.2
03:45 1003 29.62 833 24.6 -14.7 5.6 86 -16.6 2.1
03:50 1004 29.65 833 24.6 -14.8 5.5 86 -16.6 2.1
03:55 1004 29.65 833 24.6 -14.7 5.6 85 -16.6 2.1
04:00 1004 29.65 833 24.6 -14.7 5.5 86 -16.5 2.3
04:05 1004 29.65 833 24.6 -14.7 5.5 85 -16.7 2
04:10 1004 29.65 833 24.6 -14.9 5.2 86 -16.8 1.8
04:15 1004 29.65 833 24.6 -14.9 5.2 86 -16.7 1.9
04:20 1004 29.65 833 24.6 -14.9 5.1 86 -16.8 1.8
04:25 1004 29.65 833 24.6 -15 5.1 86 -16.7 1.9
04:30 1004 29.65 833 24.6 -14.8 5.4 87 -16.6 2.2
04:35 1004 29.65 833 24.6 -14.8 5.4 86 -16.7 2
04:40 1004 29.65 833 24.6 -14.9 5.2 86 -16.8 1.8
04:45 1004 29.65 833 24.6 -14.9 5.2 86 -16.8 1.8
04:50 1004 29.65 833 24.6 -15 5.1 86 -16.8 1.8
04:55 1004 29.65 833 24.6 -14.9 5.3 86 -16.7 1.9
05:00 1004 29.65 834 24.63 -14.9 5.1 86 -16.8 1.8
05:05 1004 29.65 834 24.63 -15 5.1 85 -16.9 1.6
05:10 1004 29.65 834 24.63 -15 5.1 86 -16.9 1.6
05:15 1004 29.65 834 24.63 -15 5 85 -17 1.4
05:20 1005 29.68 834 24.63 -15.1 4.8 84 -17.2 1
05:25 1005 29.68 834 24.63 -15.3 4.5 85 -17.2 1
05:30 1005 29.68 834 24.63 -15.3 4.4 85 -17.3 0.9
05:35 1005 29.68 834 24.63 -15.3 4.4 85 -17.3 0.8
05:40 1005 29.68 834 24.63 -15.4 4.3 85 -17.4 0.7
05:45 1005 29.68 834 24.63 -15.4 4.2 86 -17.3 0.8
05:50 1005 29.68 834 24.63 -15.5 4.1 86 -17.4 0.8
05:55 1005 29.68 834 24.63 -15.4 4.3 86 -17.3 0.9
06:00 1005 29.68 834 24.63 -15.3 4.6 85 -17.3 0.9
06:05 1005 29.68 834 24.63 -15.2 4.6 85 -17.2 1.1
06:10 1005 29.68 834 24.63 -15.3 4.4 86 -17.2 1
06:15 1005 29.68 834 24.63 -15.3 4.5 86 -17.1 1.2
06:20 1005 29.68 834 24.63 -15.1 4.8 85 -17.1 1.3
06:25 1005 29.68 834 24.63 -15.2 4.6 86 -17 1.4
06:30 1005 29.68 834 24.63 -15.1 4.8 86 -17 1.4
06:35 1005 29.68 834 24.63 -15.2 4.7 85 -17.1 1.2
06:40 1005 29.68 834 24.63 -15.3 4.4 84 -17.4 0.7
06:45 1005 29.68 834 24.63 -15.4 4.3 85 -17.4 0.7
06:50 1005 29.68 835 24.66 -15.3 4.5 82 -17.7 0.1
06:55 1005 29.68 835 24.66 -15.2 4.6 80 -18 -0.3
07:00 1005 29.68 835 24.66 -15.2 4.6 77 -18.5 -1.3
07:05 1006 29.71 835 24.66 -15.3 4.4 77 -18.6 -1.4
07:10 1006 29.71 835 24.66 -15.4 4.3 77 -18.5 -1.3
07:15 1006 29.71 835 24.66 -15.4 4.2 77 -18.6 -1.5
07:20 1006 29.71 835 24.66 -15.5 4.1 76 -18.8 -1.8
07:25 1006 29.71 835 24.66 -15.5 4.1 77 -18.7 -1.7
07:30 1006 29.71 835 24.66 -15.5 4 76 -18.9 -2
07:35 1006 29.71 835 24.66 -15.6 4 77 -18.7 -1.7
07:40 1006 29.71 835 24.66 -15.6 3.9 79 -18.5 -1.4
07:45 1006 29.71 835 24.66 -15.6 3.9 81 -18.1 -0.7
07:50 1006 29.71 835 24.66 -15.7 3.8 83 -17.9 -0.2
07:55 1006 29.71 835 24.66 -15.8 3.5 85 -17.7 0.1
08:00 1006 29.71 835 24.66 -15.9 3.4 86 -17.8 -0
08:05 1006 29.71 835 24.66 -16.1 3.1 85 -18 -0.4
08:10 1006 29.71 835 24.66 -16.2 2.8 86 -18.1 -0.5
08:15 1006 29.71 835 24.66 -16.3 2.7 86 -18.2 -0.7
08:20 1006 29.71 836 24.69 -16.3 2.6 86 -18.1 -0.6
08:25 1006 29.71 836 24.69 -16.3 2.6 86 -18.2 -0.7
08:30 1006 29.71 836 24.69 -16.4 2.5 86 -18.2 -0.8
08:35 1006 29.71 836 24.69 -16.4 2.5 86 -18.2 -0.7
08:40 1007 29.74 836 24.69 -16.2 2.8 86 -18.1 -0.5
08:45 1007 29.74 836 24.69 -16.1 3 86 -18 -0.4
08:50 1007 29.74 836 24.69 -16.2 2.9 85 -18.1 -0.6
08:55 1007 29.74 836 24.69 -16.2 2.8 86 -18 -0.4
09:00 1007 29.74 836 24.69 -16 3.1 86 -17.8 -0.1
09:05 1007 29.74 836 24.69 -15.9 3.3 85 -17.9 -0.2
09:10 1007 29.74 836 24.69 -16 3.2 85 -18 -0.4
09:15 1007 29.74 836 24.69 -16.1 3.1 85 -18 -0.5
09:20 1007 29.74 836 24.69 -15.9 3.3 84 -18.1 -0.5
09:25 1007 29.74 836 24.69 -16 3.2 86 -17.9 -0.2
09:30 1007 29.74 836 24.69 -15.9 3.4 85 -17.8 -0.1
09:35 1007 29.74 836 24.69 -15.9 3.4 84 -18.1 -0.6
09:40 1007 29.74 836 24.69 -16.1 3 85 -18.1 -0.6
09:45 1007 29.74 836 24.69 -15.8 3.6 84 -18 -0.4
09:50 1007 29.74 837 24.72 -15.8 3.6 83 -18 -0.5
09:55 1007 29.74 837 24.72 -15.6 4 85 -17.5 0.4
10:00 1007 29.74 837 24.72 -14.9 5.2 83 -17.1 1.2
10:05 1007 29.74 837 24.72 -14.6 5.8 82 -17 1.5
10:10 1008 29.77 837 24.72 -14.5 5.9 81 -17.1 1.2
10:15 1008 29.77 837 24.72 -14.5 5.9 81 -17.1 1.3
10:20 1008 29.77 837 24.72 -14.4 6.1 80 -17.1 1.2
10:25 1008 29.77 837 24.72 -14.6 5.7 81 -17.2 1.1
10:30 1008 29.77 837 24.72 -14.6 5.8 81 -17.1 1.2
10:35 1008 29.77 837 24.72 -14.4 6.1 79 -17.2 1
10:40 1008 29.77 837 24.72 -14.5 5.9 80 -17.3 0.9
10:45 1008 29.77 837 24.72 -14.5 5.8 80 -17.3 0.9
10:50 1008 29.77 837 24.72 -14.4 6 78 -17.4 0.7
10:55 1008 29.77 837 24.72 -14.6 5.7 79 -17.5 0.4
11:00 1008 29.77 837 24.72 -14.7 5.6 78 -17.6 0.2
11:05 1008 29.77 837 24.72 -14.6 5.8 78 -17.6 0.4
11:10 1008 29.77 837 24.72 -14.5 6 78 -17.6 0.4
11:15 1008 29.77 837 24.72 -14.5 5.8 78 -17.6 0.4
11:20 1008 29.77 837 24.72 -14.5 6 78 -17.4 0.6
11:25 1008 29.77 837 24.72 -14.3 6.3 78 -17.4 0.7
11:30 1008 29.77 837 24.72 -14.3 6.3 77 -17.5 0.5
11:35 1008 29.77 837 24.72 -14.5 5.9 78 -17.6 0.3
11:40 1008 29.77 837 24.72 -14.6 5.7 78 -17.7 0.2
11:45 1008 29.77 837 24.72 -14.5 6 78 -17.5 0.4
11:50 1008 29.77 837 24.72 -14.3 6.3 77 -17.4 0.6
11:55 1008 29.77 837 24.72 -14.3 6.3 78 -17.4 0.7
12:00 1008 29.77 837 24.72 -14.2 6.4 77 -17.4 0.6
12:05 1008 29.77 837 24.72 -14.1 6.7 78 -17 1.3
12:10 1008 29.77 837 24.72 -14 6.8 76 -17.3 0.9
12:15 1008 29.77 837 24.72 -14.2 6.4 77 -17.5 0.6
12:20 1008 29.77 837 24.72 -14.4 6 77 -17.6 0.3
12:25 1008 29.77 837 24.72 -14.4 6.2 77 -17.5 0.5
12:30 1008 29.77 837 24.72 -14.3 6.3 78 -17.4 0.7
12:35 1008 29.77 837 24.72 -14.1 6.7 77 -17.3 0.9
12:40 1008 29.77 837 24.72 -14.1 6.7 75 -17.5 0.5
12:45 1008 29.77 837 24.72 -14.2 6.5 75 -17.7 0.2
12:50 1008 29.77 837 24.72 -14.2 6.4 77 -17.4 0.7
12:55 1008 29.77 837 24.72 -14 6.7 77 -17.3 0.9
13:00 1008 29.77 837 24.72 -14.1 6.7 76 -17.5 0.6
13:05 1008 29.77 837 24.72 -14.3 6.3 76 -17.7 0.2
13:10 1008 29.77 837 24.72 -14.4 6.2 77 -17.5 0.5
13:15 1008 29.77 837 24.72 -14.4 6.1 78 -17.4 0.7
13:20 1008 29.77 837 24.72 -14.2 6.5 76 -17.6 0.4
13:25 1008 29.77 837 24.72 -14.2 6.5 76 -17.5 0.5
13:30 1008 29.77 837 24.72 -14.2 6.5 76 -17.5 0.5
13:35 1008 29.77 837 24.72 -14.2 6.4 77 -17.5 0.6
13:40 1008 29.77 837 24.72 -14.1 6.7 76 -17.5 0.6
13:45 1008 29.77 837 24.72 -14.2 6.4 76 -17.7 0.2
13:50 1008 29.77 837 24.72 -14.4 6.2 76 -17.6 0.2
13:55 1008 29.77 837 24.72 -14.3 6.3 76 -17.6 0.3
14:00 1008 29.77 837 24.72 -14.2 6.4 76 -17.6 0.3
14:05 1008 29.77 837 24.72 -14.2 6.4 75 -17.7 0.2
14:10 1008 29.77 837 24.72 -14.1 6.7 77 -17.3 0.8
14:15 1008 29.77 837 24.72 -13.8 7.2 75 -17.4 0.7
14:20 1008 29.77 837 24.72 -13.9 7 75 -17.5 0.6
14:25 1008 29.77 837 24.72 -14.1 6.6 75 -17.6 0.4
14:30 1008 29.77 837 24.72 -14.4 6 77 -17.6 0.3
14:35 1008 29.77 837 24.72 -14.3 6.2 77 -17.6 0.3
14:40 1008 29.77 837 24.72 -14.4 6.2 77 -17.5 0.4
14:45 1008 29.77 838 24.75 -14.4 6 78 -17.5 0.5
14:50 1008 29.77 838 24.75 -14.5 5.8 77 -17.7 0.1
14:55 1008 29.77 838 24.75 -14.7 5.5 79 -17.7 0.2
15:00 1008 29.77 838 24.75 -14.8 5.5 78 -17.7 0.1
15:05 1009 29.8 838 24.75 -14.8 5.4 79 -17.6 0.3
15:10 1009 29.8 838 24.75 -14.7 5.5 79 -17.6 0.4
15:15 1009 29.8 838 24.75 -14.7 5.5 79 -17.6 0.3
15:20 1009 29.8 838 24.75 -15 5.1 80 -17.6 0.3
15:25 1009 29.8 838 24.75 -14.9 5.2 79 -17.8 -0
15:30 1009 29.8 838 24.75 -15 5 79 -17.9 -0.2
15:35 1009 29.8 838 24.75 -15.2 4.7 80 -17.8 -0.1
15:40 1009 29.8 838 24.75 -15.1 4.8 79 -17.9 -0.3
15:45 1009 29.8 838 24.75 -15.2 4.7 80 -17.9 -0.3
15:50 1009 29.8 838 24.75 -15.2 4.6 79 -18.2 -0.7
15:55 1009 29.8 838 24.75 -15.3 4.4 79 -18.2 -0.8
16:00 1009 29.8 838 24.75 -15.4 4.3 78 -18.3 -1
16:05 1009 29.8 838 24.75 -15.5 4.1 79 -18.4 -1.2
16:10 1009 29.8 838 24.75 -15.5 4.1 80 -18.2 -0.8
16:15 1009 29.8 838 24.75 -15.5 4 80 -18.3 -0.9
16:20 1009 29.8 838 24.75 -15.7 3.8 80 -18.4 -1.1
16:25 1009 29.8 839 24.78 -15.9 3.5 81 -18.4 -1.1
16:30 1009 29.8 839 24.78 -15.8 3.5 82 -18.2 -0.8
16:35 1009 29.8 839 24.78 -15.8 3.5 82 -18.3 -1
16:40 1009 29.8 839 24.78 -16.2 2.9 82 -18.5 -1.4
16:45 1009 29.8 839 24.78 -16.4 2.5 82 -18.7 -1.7
16:50 1009 29.8 839 24.78 -16.5 2.2 82 -18.9 -2.1
16:55 1010 29.83 839 24.78 -16.8 1.7 83 -19 -2.2
17:00 1010 29.83 839 24.78 -16.9 1.6 82 -19.2 -2.6
17:05 1010 29.83 839 24.78 -17.1 1.2 83 -19.3 -2.7
17:10 1010 29.83 839 24.78 -17 1.3 83 -19.2 -2.6
17:15 1010 29.83 839 24.78 -17.2 1 83 -19.4 -2.9
17:20 1010 29.83 839 24.78 -17.5 0.5 84 -19.6 -3.3
17:25 1010 29.83 839 24.78 -17.4 0.7 84 -19.5 -3.1
17:30 1010 29.83 839 24.78 -17.5 0.5 83 -19.7 -3.5
17:35 1010 29.83 839 24.78 -17.9 -0.3 84 -20 -3.9
17:40 1010 29.83 839 24.78 -17.8 -0 84 -19.8 -3.7
17:45 1010 29.83 839 24.78 -17.5 0.5 84 -19.6 -3.3
17:50 1010 29.83 839 24.78 -17.3 0.8 82 -19.7 -3.4
17:55 1010 29.83 839 24.78 -17.3 0.8 83 -19.6 -3.2
18:00 1010 29.83 840 24.81 -17.4 0.7 82 -19.7 -3.5
18:05 1010 29.83 840 24.81 -17.7 0.2 83 -19.9 -3.8
18:10 1010 29.83 840 24.81 -17.8 0 83 -20 -3.9
18:15 1010 29.83 840 24.81 -17.9 -0.1 83 -20 -4
18:20 1010 29.83 840 24.81 -17.8 -0.1 84 -19.9 -3.8
18:25 1010 29.83 840 24.81 -17.7 0.2 85 -19.7 -3.4
18:30 1010 29.83 840 24.81 -17.6 0.3 86 -19.5 -3.1
18:35 1011 29.85 840 24.81 -17.5 0.4 85 -19.5 -3.1
18:40 1011 29.85 840 24.81 -17.5 0.6 84 -19.6 -3.3
18:45 1011 29.85 840 24.81 -17.4 0.7 81 -20 -4
18:50 1011 29.85 840 24.81 -17.4 0.6 80 -20.1 -4.1
18:55 1011 29.85 840 24.81 -17.4 0.8 79 -20.2 -4.3
19:00 1011 29.85 840 24.81 -17.3 0.8 78 -20.3 -4.5
19:05 1011 29.85 840 24.81 -17.6 0.4 79 -20.3 -4.5
19:10 1011 29.85 840 24.81 -17.7 0.1 78 -20.7 -5.3
19:15 1011 29.85 840 24.81 -17.9 -0.3 78 -20.8 -5.5
19:20 1011 29.85 840 24.81 -18 -0.3 79 -20.8 -5.4
19:25 1011 29.85 840 24.81 -17.9 -0.3 79 -20.7 -5.2
19:30 1011 29.85 840 24.81 -17.9 -0.2 77 -21 -5.7
19:35 1011 29.85 840 24.81 -18.1 -0.5 78 -21 -5.8
19:40 1011 29.85 840 24.81 -18.1 -0.5 77 -21.1 -6
19:45 1011 29.85 840 24.81 -18.1 -0.6 76 -21.4 -6.6
19:50 1011 29.85 840 24.81 -18.1 -0.5 75 -21.5 -6.6
19:55 1011 29.85 840 24.81 -18.1 -0.6 75 -21.4 -6.6
20:00 1011 29.85 840 24.81 -18.1 -0.5 77 -21.2 -6.2
20:05 1011 29.85 840 24.81 -18.2 -0.7 77 -21.3 -6.4
20:10 1011 29.85 840 24.81 -18.3 -0.9 78 -21.3 -6.3
20:15 1011 29.85 840 24.81 -18.3 -0.9 77 -21.3 -6.3
20:20 1011 29.85 840 24.81 -18.3 -0.9 78 -21.2 -6.2
20:25 1011 29.85 840 24.81 -18.3 -1 77 -21.4 -6.6
20:30 1011 29.85 840 24.81 -18.3 -1 78 -21.3 -6.4
20:35 1011 29.85 840 24.81 -18.3 -0.9 78 -21.3 -6.3
20:40 1011 29.85 840 24.81 -18.3 -1 78 -21.2 -6.2
20:45 1011 29.85 840 24.81 -18.3 -0.9 78 -21.2 -6.2
20:50 1011 29.85 840 24.81 -18.2 -0.8 79 -21.1 -5.9
20:55 1011 29.85 841 24.83 -18.2 -0.8 81 -20.8 -5.4
21:00 1011 29.85 841 24.83 -18.2 -0.7 79 -21.1 -5.9
21:05 1011 29.85 841 24.83 -18.2 -0.7 78 -21.2 -6.1
21:10 1011 29.85 841 24.83 -18.3 -0.9 79 -21.1 -6.1
21:15 1011 29.85 841 24.83 -18.3 -0.9 78 -21.3 -6.3
21:20 1011 29.85 841 24.83 -18.3 -0.9 77 -21.4 -6.4
21:25 1011 29.85 841 24.83 -18.3 -0.9 76 -21.5 -6.7
21:30 1012 29.88 841 24.83 -18.3 -1 76 -21.6 -6.8
21:35 1012 29.88 841 24.83 -18.3 -1 75 -21.7 -7.1
21:40 1012 29.88 841 24.83 -18.4 -1 74 -21.9 -7.4
21:45 1012 29.88 841 24.83 -18.4 -1.1 75 -21.9 -7.4
21:50 1012 29.88 841 24.83 -18.5 -1.2 74 -22 -7.5
21:55 1012 29.88 841 24.83 -18.5 -1.2 74 -22 -7.6
22:00 1012 29.88 841 24.83 -18.5 -1.3 74 -22 -7.6
22:05 1012 29.88 841 24.83 -18.5 -1.4 74 -22.1 -7.7
22:10 1012 29.88 841 24.83 -18.6 -1.4 74 -22.2 -7.9
22:15 1012 29.88 841 24.83 -18.5 -1.3 74 -22.2 -7.9
22:20 1012 29.88 841 24.83 -18.5 -1.3 73 -22.2 -8
22:25 1012 29.88 841 24.83 -18.5 -1.3 73 -22.3 -8.1
22:30 1012 29.88 841 24.83 -18.6 -1.4 73 -22.3 -8.2
22:35 1012 29.88 841 24.83 -18.6 -1.5 72 -22.4 -8.3
22:40 1012 29.88 841 24.83 -18.7 -1.7 73 -22.4 -8.3
22:45 1012 29.88 841 24.83 -18.7 -1.7 74 -22.3 -8.1
22:50 1012 29.88 841 24.83 -18.8 -1.8 75 -22.1 -7.8
22:55 1012 29.88 841 24.83 -18.8 -1.8 75 -22.1 -7.8
23:00 1012 29.88 841 24.83 -18.8 -1.8 77 -21.8 -7.2
23:05 1012 29.88 841 24.83 -18.7 -1.7 77 -21.8 -7.3
23:10 1012 29.88 841 24.83 -18.8 -1.8 76 -21.9 -7.5
23:15 1012 29.88 841 24.83 -18.8 -1.8 78 -21.6 -6.9
23:20 1012 29.88 841 24.83 -18.7 -1.7 77 -21.8 -7.3
23:25 1012 29.88 841 24.83 -18.7 -1.6 77 -21.8 -7.2
23:30 1012 29.88 841 24.83 -18.7 -1.7 77 -21.8 -7.2
23:35 1012 29.88 841 24.83 -18.7 -1.7 76 -22 -7.5
23:40 1012 29.88 841 24.83 -18.6 -1.5 76 -21.9 -7.5
23:45 1012 29.88 841 24.83 -18.6 -1.6 77 -21.8 -7.2
23:50 1012 29.88 841 24.83 -18.6 -1.4 76 -21.9 -7.4
23:55 1012 29.88 841 24.83 -18.5 -1.4 75 -21.9 -7.4
24:00 1012 29.88 841 24.83 -18.5 -1.3 77 -21.7 -7